Time;durP1;ratioP1;P1;durP2;ratioP2;P2;SDS_P1;SDS_P2;PMS_P1;PMS_P2;Temp;Humidity;BMP_temperature;BMP_pressure;BME280_temperature;BME280_humidity;BME280_pressure;Samples;Min_cycle;Max_cycle;Signal;HPM_P1;HPM_P2
2023/07/28 00:04:57;;;;;;;4.75;3.35;;;16.20;36.70;;;;;;10578100;28;20202;-83
2023/07/28 00:10:18;;;;;;;4.68;3.50;;;16.10;99.90;;;;;;10602916;28;20201;-83
2023/07/28 00:15:39;;;;;;;4.90;3.08;;;16.10;99.90;;;;;;10590872;28;20227;-82
2023/07/28 00:21:00;;;;;;;5.72;3.42;;;16.10;99.90;;;;;;10568034;28;20251;-82
2023/07/28 00:26:22;;;;;;;5.05;3.45;;;16.10;66.90;;;;;;10579121;28;20254;-83
2023/07/28 00:31:43;;;;;;;5.97;3.58;;;16.00;48.50;;;;;;10590503;28;20223;-82
2023/07/28 00:37:05;;;;;;;6.10;3.60;;;16.00;99.20;;;;;;10589022;28;20196;-81
2023/07/28 00:42:26;;;;;;;5.78;3.60;;;16.00;99.90;;;;;;10569098;28;20196;-82
2023/07/28 00:47:47;;;;;;;7.40;4.20;;;16.00;12.30;;;;;;10613836;27;20236;-79
2023/07/28 00:53:09;;;;;;;5.35;3.75;;;16.10;5.10;;;;;;10586482;27;20214;-82
2023/07/28 00:58:31;;;;;;;6.60;3.20;;;16.00;1.00;;;;;;10613671;27;20241;-80
2023/07/28 01:03:52;;;;;;;4.97;3.55;;;16.10;26.70;;;;;;10568005;28;20208;-82
2023/07/28 01:09:18;;;;;;;3.90;2.80;;;16.10;1.00;;;;;;10587102;28;20212;-76
2023/07/28 01:14:40;;;;;;;5.57;2.78;;;16.10;1.00;;;;;;10580065;28;20205;-82
2023/07/28 01:20:03;;;;;;;4.22;3.45;;;16.10;10.90;;;;;;10585462;28;20223;-79
2023/07/28 01:25:33;;;;;;;5.78;4.40;;;16.10;4.20;;;;;;10584129;28;20195;-76
2023/07/28 01:30:54;;;;;;;6.35;3.70;;;16.00;17.80;;;;;;10570911;28;20381;-75
2023/07/28 01:36:16;;;;;;;5.25;3.40;;;16.10;99.90;;;;;;10582881;28;20200;-79
2023/07/28 01:41:39;;;;;;;5.03;3.70;;;16.10;40.30;;;;;;10584795;28;20285;-79
2023/07/28 01:47:01;;;;;;;4.95;3.45;;;16.10;99.90;;;;;;10594514;27;20531;-77
2023/07/28 01:52:22;;;;;;;3.65;2.90;;;16.10;55.10;;;;;;10587325;28;20189;-77
2023/07/28 01:57:54;;;;;;;4.82;3.28;;;16.10;99.90;;;;;;10587561;28;20255;-80
2023/07/28 02:03:16;;;;;;;4.50;3.42;;;16.10;80.00;;;;;;10556919;28;20216;-78
2023/07/28 02:08:37;;;;;;;5.05;3.42;;;16.20;1.80;;;;;;10599779;28;20197;-78
2023/07/28 02:13:59;;;;;;;6.18;3.28;;;16.20;99.90;;;;;;10598177;28;20196;-76
2023/07/28 02:19:20;;;;;;;4.40;3.15;;;16.20;99.90;;;;;;10586683;28;20224;-80
2023/07/28 02:24:41;;;;;;;4.00;3.38;;;16.30;99.90;;;;;;10566517;28;20202;-82
2023/07/28 02:30:03;;;;;;;4.25;3.25;;;16.20;99.90;;;;;;10547492;28;20202;-80
2023/07/28 02:35:25;;;;;;;4.95;3.47;;;16.20;99.90;;;;;;10573897;28;20197;-75
2023/07/28 02:40:46;;;;;;;4.70;3.15;;;16.10;99.90;;;;;;10594456;28;20219;-78
2023/07/28 02:46:07;;;;;;;4.60;3.53;;;16.10;1.00;;;;;;10599801;27;20232;-76
2023/07/28 02:51:29;;;;;;;5.45;3.33;;;16.10;1.00;;;;;;10568331;28;20372;-79
2023/07/28 02:56:51;;;;;;;4.93;3.13;;;16.10;1.00;;;;;;10617794;27;20423;-80
2023/07/28 03:02:12;;;;;;;4.82;3.42;;;16.10;1.00;;;;;;10567425;28;20308;-78
2023/07/28 03:07:35;;;;;;;4.40;3.25;;;16.10;99.90;;;;;;10550643;28;20201;-77
2023/07/28 03:13:00;;;;;;;4.57;3.65;;;16.10;99.90;;;;;;10550937;28;20197;-75
2023/07/28 03:18:22;;;;;;;5.15;3.67;;;16.00;99.90;;;;;;10550847;28;20546;-78
2023/07/28 03:23:43;;;;;;;5.13;3.35;;;16.10;1.00;;;;;;10588622;28;20205;-75
2023/07/28 03:29:05;;;;;;;8.35;3.90;;;16.00;1.00;;;;;;10592775;28;20201;-82
2023/07/28 03:34:26;;;;;;;5.28;3.60;;;16.00;1.00;;;;;;10556028;28;20201;-82
2023/07/28 03:39:50;;;;;;;5.90;4.03;;;16.00;4.40;;;;;;10592402;28;20297;-79
2023/07/28 03:45:14;;;;;;;5.50;3.85;;;16.00;1.00;;;;;;10592186;28;20214;-75
2023/07/28 03:50:35;;;;;;;4.82;3.85;;;16.00;1.00;;;;;;10585917;28;20223;-75
2023/07/28 03:55:57;;;;;;;6.10;3.67;;;16.10;1.00;;;;;;10591595;28;20199;-80
2023/07/28 04:01:18;;;;;;;5.13;3.95;;;16.10;1.00;;;;;;10586773;28;20229;-83
2023/07/28 04:06:44;;;;;;;7.00;4.53;;;16.10;18.30;;;;;;10597867;28;20271;-75
2023/07/28 04:12:05;;;;;;;8.85;4.50;;;16.10;1.00;;;;;;10590726;28;20258;-76
2023/07/28 04:17:27;;;;;;;7.13;4.47;;;16.10;1.00;;;;;;10588257;28;20208;-76
2023/07/28 04:22:49;;;;;;;6.22;4.47;;;16.20;1.00;;;;;;10573267;28;20207;-75
2023/07/28 04:28:10;;;;;;;6.22;4.45;;;16.20;99.90;;;;;;10605589;28;20192;-81
2023/07/28 04:33:32;;;;;;;4.45;3.70;;;16.20;17.70;;;;;;10566438;28;20196;-82
2023/07/28 04:38:53;;;;;;;5.07;3.90;;;16.30;1.00;;;;;;10533547;28;20240;-75
2023/07/28 04:44:17;;;;;;;5.75;4.15;;;16.30;1.00;;;;;;10561117;28;20454;-78
2023/07/28 04:49:40;;;;;;;8.32;5.13;;;16.30;1.00;;;;;;10584605;27;20267;-81
2023/07/28 04:55:01;;;;;;;5.78;4.20;;;16.30;1.00;;;;;;10603579;28;20196;-75
2023/07/28 05:00:23;;;;;;;5.03;3.72;;;16.40;1.00;;;;;;10557346;27;20266;-75
2023/07/28 05:05:45;;;;;;;9.23;4.30;;;16.30;49.10;;;;;;10577814;28;20330;-80
2023/07/28 05:11:07;;;;;;;6.43;4.50;;;16.40;99.90;;;;;;10579485;28;20220;-75
2023/07/28 05:16:29;;;;;;;6.50;3.90;;;16.50;1.00;;;;;;10586805;28;20204;-82
2023/07/28 05:21:56;;;;;;;6.50;4.70;;;16.70;1.00;;;;;;10585162;28;20247;-75
2023/07/28 05:27:30;;;;;;;5.80;4.40;;;16.70;99.90;;;;;;10554161;28;20200;-82
2023/07/28 05:32:54;;;;;;;7.30;5.05;;;16.70;1.00;;;;;;10587496;28;20197;-77
2023/07/28 05:38:24;;;;;;;6.45;4.25;;;16.80;99.90;;;;;;10554623;28;20297;-77
2023/07/28 05:43:46;;;;;;;9.02;4.80;;;16.80;99.90;;;;;;10582868;28;20209;-79
2023/07/28 05:49:08;;;;;;;6.53;4.07;;;16.90;99.90;;;;;;10565317;28;20221;-78
2023/07/28 05:54:29;;;;;;;6.45;4.25;;;17.00;1.00;;;;;;10624091;28;20239;-80
2023/07/28 05:59:51;;;;;;;5.22;3.45;;;17.20;59.20;;;;;;10600404;28;20442;-76
2023/07/28 06:05:12;;;;;;;5.30;4.00;;;17.40;1.00;;;;;;10588032;28;20234;-75
2023/07/28 06:10:34;;;;;;;5.00;4.32;;;17.50;1.00;;;;;;10560279;28;20242;-79
2023/07/28 06:15:58;;;;;;;5.47;3.42;;;17.60;1.00;;;;;;10571882;28;20190;-76
2023/07/28 06:21:19;;;;;;;5.28;3.70;;;17.80;1.00;;;;;;10552530;28;20536;-77
2023/07/28 06:26:40;;;;;;;5.50;3.83;;;18.00;1.00;;;;;;10552760;28;20202;-77
2023/07/28 06:32:01;;;;;;;7.63;4.55;;;18.20;99.90;;;;;;10568074;28;20217;-79
2023/07/28 06:37:23;;;;;;;8.07;4.30;;;18.30;99.90;;;;;;10558221;28;20217;-79
2023/07/28 06:42:44;;;;;;;6.28;4.40;;;18.50;99.90;;;;;;10558373;28;20222;-77
2023/07/28 06:48:07;;;;;;;6.97;3.63;;;18.70;99.90;;;;;;10557073;28;20231;-77
2023/07/28 06:53:29;;;;;;;8.90;4.20;;;19.00;99.90;;;;;;10572355;27;20238;-82
2023/07/28 06:58:51;;;;;;;5.15;3.97;;;18.90;99.90;;;;;;10594127;28;20568;-87
2023/07/28 07:04:18;;;;;;;6.18;3.47;;;18.90;99.90;;;;;;10583595;27;20201;-75
2023/07/28 07:09:40;;;;;;;4.47;3.80;;;18.70;99.90;;;;;;10614176;27;20193;-79
2023/07/28 07:15:02;;;;;;;5.10;3.83;;;18.50;99.50;;;;;;10548231;28;20204;-77
2023/07/28 07:20:24;;;;;;;6.63;3.88;;;18.30;99.90;;;;;;10639707;27;20281;-75
2023/07/28 07:25:45;;;;;;;3.60;2.97;;;18.40;99.90;;;;;;10645815;27;20263;-78
2023/07/28 07:31:14;;;;;;;4.38;3.50;;;18.40;99.90;;;;;;10636223;27;20209;-78
2023/07/28 07:36:35;;;;;;;7.00;3.90;;;18.20;99.90;;;;;;10639818;27;20276;-83
2023/07/28 07:41:57;;;;;;;5.70;3.60;;;18.10;1.00;;;;;;10645790;27;20450;-77
2023/07/28 07:47:18;;;;;;;6.47;3.58;;;18.00;1.00;;;;;;10626347;27;20226;-84
2023/07/28 07:52:39;;;;;;;7.60;4.55;;;18.10;1.00;;;;;;10600630;28;20523;-74
2023/07/28 07:58:02;;;;;;;4.43;3.70;;;17.80;1.00;;;;;;10539097;28;20201;-78
2023/07/28 08:03:25;;;;;;;7.05;4.45;;;17.80;14.60;;;;;;10573189;28;20273;-75
2023/07/28 08:08:47;;;;;;;13.30;5.82;;;17.70;99.90;;;;;;10558701;28;20197;-87
2023/07/28 08:14:08;;;;;;;6.32;4.20;;;17.80;1.00;;;;;;10550195;28;20258;-75
2023/07/28 08:19:29;;;;;;;6.97;4.03;;;17.60;99.90;;;;;;10582895;28;20247;-75
2023/07/28 08:24:50;;;;;;;6.30;4.05;;;17.70;99.90;;;;;;10586181;28;20215;-85
2023/07/28 08:30:12;;;;;;;5.05;4.22;;;17.70;99.90;;;;;;10568292;28;20259;-75
2023/07/28 08:35:34;;;;;;;9.38;5.15;;;17.60;1.00;;;;;;10551684;28;20199;-79
2023/07/28 08:40:58;;;;;;;6.95;5.22;;;17.50;99.90;;;;;;10546684;28;20270;-80
2023/07/28 08:46:23;;;;;;;11.02;4.45;;;17.50;1.00;;;;;;10598891;27;20232;-76
2023/07/28 08:51:50;;;;;;;6.60;5.13;;;17.70;1.00;;;;;;10543072;27;20202;-78
2023/07/28 08:57:12;;;;;;;7.63;5.00;;;17.80;1.00;;;;;;10539325;28;20206;-79
2023/07/28 09:02:33;;;;;;;5.72;4.65;;;17.70;1.00;;;;;;10550270;28;20224;-75
2023/07/28 09:07:54;;;;;;;6.38;4.00;;;17.80;1.00;;;;;;10594052;28;20300;-78
2023/07/28 09:13:17;;;;;;;7.15;4.90;;;17.80;1.00;;;;;;10557243;28;20295;-76
2023/07/28 09:18:38;;;;;;;7.13;4.55;;;17.70;99.90;;;;;;10528415;28;20201;-77
2023/07/28 09:24:04;;;;;;;4.32;3.72;;;17.70;99.90;;;;;;10554733;28;20195;-80
2023/07/28 09:29:27;;;;;;;8.10;5.32;;;17.80;99.90;;;;;;10577255;28;20211;-77
2023/07/28 09:34:48;;;;;;;14.98;4.65;;;17.70;99.90;;;;;;10594544;27;20455;-81
2023/07/28 09:40:18;;;;;;;8.02;4.82;;;17.70;1.00;;;;;;10621787;27;20220;-77
2023/07/28 09:45:42;;;;;;;4.80;4.15;;;17.70;99.90;;;;;;10621254;27;20216;-78
2023/07/28 09:51:30;;;;;;;3.22;2.80;;;17.70;99.90;;;;;;10570161;28;20447;-75
2023/07/28 09:56:56;;;;;;;7.10;3.30;;;18.00;1.00;;;;;;10586148;28;20194;-79
2023/07/28 10:02:17;;;;;;;58.33;17.17;;;18.30;1.00;;;;;;10567812;28;20296;-82
2023/07/28 10:07:42;;;;;;;149.73;46.10;;;18.40;1.00;;;;;;10581323;28;20413;-79
2023/07/28 10:13:04;;;;;;;42.70;15.25;;;18.60;1.00;;;;;;10579024;28;20235;-77
2023/07/28 10:18:26;;;;;;;27.00;10.13;;;18.80;99.90;;;;;;10579994;28;20201;-77
2023/07/28 10:23:56;;;;;;;23.65;8.93;;;18.90;1.00;;;;;;10537990;28;20552;-79
2023/07/28 10:29:17;;;;;;;12.98;5.45;;;18.90;1.00;;;;;;10530477;28;20194;-78
2023/07/28 10:34:40;;;;;;;10.77;4.82;;;18.80;1.00;;;;;;10539324;28;20373;-78
2023/07/28 10:40:28;;;;;;;7.60;3.35;;;19.00;1.00;;;;;;10596510;28;20225;-79
2023/07/28 10:45:55;;;;;;;4.50;2.88;;;19.00;1.00;;;;;;10549035;28;21068;-78
2023/07/28 10:51:26;;;;;;;4.72;3.78;;;19.00;99.90;;;;;;10569841;27;20398;-78
2023/07/28 10:56:48;;;;;;;4.03;3.00;;;19.00;99.90;;;;;;10563211;28;20285;-78
2023/07/28 11:02:15;;;;;;;2.67;2.42;;;19.00;99.90;;;;;;10595045;28;20232;-77
2023/07/28 11:07:37;;;;;;;2.85;2.60;;;19.00;1.00;;;;;;10601406;28;20699;-78
2023/07/28 11:13:00;;;;;;;2.35;2.00;;;19.20;99.90;;;;;;10598971;28;20198;-78
2023/07/28 11:18:26;;;;;;;2.55;2.35;;;19.10;99.90;;;;;;10596603;28;20206;-78
2023/07/28 11:23:48;;;;;;;4.28;2.28;;;19.20;99.90;;;;;;10567483;28;20217;-77
2023/07/28 11:29:09;;;;;;;5.25;3.80;;;19.30;99.90;;;;;;10587003;28;20273;-78
2023/07/28 11:34:35;;;;;;;4.38;2.20;;;19.50;1.00;;;;;;10587120;28;20422;-79
2023/07/28 11:40:00;;;;;;;2.95;2.47;;;19.60;1.00;;;;;;10598818;27;20213;-79
2023/07/28 11:45:22;;;;;;;2.33;2.03;;;19.50;1.00;;;;;;10558917;28;20205;-77
2023/07/28 11:50:45;;;;;;;3.30;2.13;;;19.40;14.80;;;;;;10568507;27;20388;-77
2023/07/28 11:56:06;;;;;;;2.53;1.98;;;19.40;99.90;;;;;;10589689;28;20206;-77
2023/07/28 12:01:27;;;;;;;2.58;2.28;;;19.40;37.90;;;;;;10602148;28;20229;-76
2023/07/28 12:07:06;;;;;;;2.88;2.42;;;19.50;99.90;;;;;;10603660;28;20410;-77
2023/07/28 12:12:29;;;;;;;2.75;2.30;;;19.50;99.90;;;;;;10612421;28;20438;-77
2023/07/28 12:37:53;;;;;;;2.53;2.10;;;19.50;1.00;;;;;;10555135;27;20575;-76
2023/07/28 12:43:18;;;;;;;2.03;1.90;;;19.40;1.00;;;;;;10559872;28;20515;-77
2023/07/28 12:48:42;;;;;;;2.33;1.90;;;19.40;99.90;;;;;;10517930;28;20203;-77
2023/07/28 12:54:06;;;;;;;2.15;1.70;;;19.50;99.90;;;;;;10545442;28;20524;-77
2023/07/28 12:59:29;;;;;;;2.72;2.03;;;19.50;99.90;;;;;;10548733;28;20266;-78
2023/07/28 13:04:50;;;;;;;2.75;2.10;;;19.70;99.90;;;;;;10548794;28;20396;-79
2023/07/28 13:10:11;;;;;;;4.53;3.65;;;20.00;1.00;;;;;;10503912;28;20210;-77
2023/07/28 13:15:52;;;;;;;2.30;2.10;;;20.10;1.00;;;;;;10508696;28;20222;-77
2023/07/28 13:21:14;;;;;;;2.58;2.35;;;20.20;1.00;;;;;;10544921;28;20249;-77
2023/07/28 13:26:35;;;;;;;2.47;2.20;;;20.20;99.90;;;;;;10543863;28;20202;-78
2023/07/28 13:32:00;;;;;;;1.83;1.70;;;20.00;1.00;;;;;;10506131;28;20211;-77
2023/07/28 13:37:21;;;;;;;6.93;1.90;;;19.90;99.90;;;;;;10530590;28;20268;-77
2023/07/28 13:42:42;;;;;;;4.43;2.05;;;19.80;1.00;;;;;;10551834;28;20238;-78
2023/07/28 13:48:04;;;;;;;4.55;2.13;;;20.00;1.00;;;;;;10552268;28;20199;-78
2023/07/28 13:53:27;;;;;;;3.13;2.50;;;20.20;1.00;;;;;;10504500;28;20215;-78
2023/07/28 13:58:52;;;;;;;5.88;3.50;;;20.20;1.00;;;;;;10478128;28;20502;-78
2023/07/28 14:04:14;;;;;;;4.75;3.63;;;20.20;99.90;;;;;;10477417;28;20188;-78
2023/07/28 14:09:36;;;;;;;4.28;3.50;;;20.00;99.90;;;;;;10520301;28;20421;-78
2023/07/28 14:14:57;;;;;;;4.10;3.70;;;19.80;99.90;;;;;;10558804;28;20268;-78
2023/07/28 14:20:19;;;;;;;5.60;3.78;;;19.50;1.00;;;;;;10541987;28;20393;-78
2023/07/28 14:25:40;;;;;;;4.00;3.10;;;19.30;99.90;;;;;;10537649;28;20292;-78
2023/07/28 14:31:02;;;;;;;4.28;3.88;;;19.20;1.00;;;;;;10545012;28;20206;-78
2023/07/28 14:36:24;;;;;;;3.63;3.25;;;19.20;1.00;;;;;;10554764;28;20258;-78
2023/07/28 14:41:45;;;;;;;3.30;3.00;;;19.40;1.00;;;;;;10552898;28;20199;-78
2023/07/28 14:47:07;;;;;;;4.45;3.38;;;19.90;99.90;;;;;;10557419;28;20194;-78
2023/07/28 14:52:28;;;;;;;4.85;3.70;;;20.40;1.00;;;;;;10557179;28;20217;-78
2023/07/28 14:57:49;;;;;;;5.03;4.00;;;20.70;99.90;;;;;;10543186;28;20218;-79
2023/07/28 15:03:11;;;;;;;6.65;3.80;;;21.10;99.90;;;;;;10543430;28;20554;-82
2023/07/28 15:08:32;;;;;;;6.40;3.83;;;21.00;65.40;;;;;;10561375;28;20244;-79
2023/07/28 15:13:54;;;;;;;5.00;4.00;;;20.90;26.90;;;;;;10545361;28;20241;-80
2023/07/28 15:19:15;;;;;;;4.65;3.03;;;20.90;17.90;;;;;;10555921;28;20504;-79
2023/07/28 15:24:36;;;;;;;3.72;3.35;;;21.10;1.00;;;;;;10559167;28;20190;-79
2023/07/28 15:29:58;;;;;;;5.13;3.50;;;21.20;1.00;;;;;;10560018;28;20191;-79
2023/07/28 15:35:19;;;;;;;4.20;3.60;;;21.10;1.00;;;;;;10536983;28;20548;-80
2023/07/28 15:40:41;;;;;;;5.00;3.75;;;21.10;1.00;;;;;;10546608;28;20195;-80
2023/07/28 15:46:04;;;;;;;3.28;2.90;;;21.00;1.00;;;;;;10543586;28;20200;-80
2023/07/28 15:51:26;;;;;;;3.65;3.13;;;20.80;1.00;;;;;;10547036;28;20191;-79
2023/07/28 15:56:47;;;;;;;6.10;3.60;;;20.70;1.00;;;;;;10561855;28;20241;-80
2023/07/28 16:02:08;;;;;;;6.55;3.85;;;20.50;1.00;;;;;;10556940;28;20202;-80
2023/07/28 16:07:29;;;;;;;4.82;3.67;;;20.60;51.40;;;;;;10560081;28;20194;-79
2023/07/28 16:12:51;;;;;;;4.85;3.85;;;20.60;1.00;;;;;;10560055;28;20265;-80
2023/07/28 16:18:12;;;;;;;5.90;3.75;;;20.50;1.00;;;;;;10555306;28;20218;-80
2023/07/28 16:23:33;;;;;;;3.92;3.00;;;20.30;1.00;;;;;;10559620;28;20247;-81
2023/07/28 16:28:55;;;;;;;4.55;3.90;;;20.30;1.00;;;;;;10555617;28;20243;-79
2023/07/28 16:34:16;;;;;;;3.53;3.20;;;20.30;1.00;;;;;;10519783;28;20310;-80
2023/07/28 16:39:37;;;;;;;3.95;3.13;;;20.30;1.00;;;;;;10545391;28;20209;-78
2023/07/28 16:44:58;;;;;;;4.95;3.30;;;20.40;6.40;;;;;;10554377;28;20198;-79
2023/07/28 16:50:20;;;;;;;5.95;3.50;;;20.30;1.00;;;;;;10560091;28;20261;-78
2023/07/28 16:55:41;;;;;;;5.35;3.20;;;20.30;1.00;;;;;;10530120;28;20228;-79
2023/07/28 17:01:03;;;;;;;4.22;2.92;;;20.30;1.00;;;;;;10529151;28;20241;-80
2023/07/28 17:06:24;;;;;;;3.15;2.72;;;20.20;1.00;;;;;;10516604;28;20485;-79
2023/07/28 17:11:45;;;;;;;3.10;2.80;;;20.10;1.00;;;;;;10517779;28;20194;-80
2023/07/28 17:17:06;;;;;;;4.25;2.88;;;20.10;1.00;;;;;;10542437;28;20525;-80
2023/07/28 17:22:28;;;;;;;3.20;2.63;;;20.00;1.00;;;;;;10562776;28;20261;-80
2023/07/28 17:27:49;;;;;;;2.85;2.53;;;20.00;1.00;;;;;;10560954;28;20206;-79
2023/07/28 17:33:11;;;;;;;2.60;2.40;;;19.80;1.00;;;;;;10551288;28;20198;-80
2023/07/28 17:38:33;;;;;;;2.47;2.10;;;19.80;1.00;;;;;;10563081;28;20446;-81
2023/07/28 17:43:54;;;;;;;2.88;2.42;;;19.60;1.00;;;;;;10564654;28;20229;-79
2023/07/28 17:49:15;;;;;;;3.40;2.38;;;19.50;1.00;;;;;;10566546;28;20183;-79
2023/07/28 17:54:36;;;;;;;2.97;2.35;;;19.50;1.00;;;;;;10564812;28;20226;-81
2023/07/28 17:59:58;;;;;;;2.45;2.10;;;19.40;99.90;;;;;;10531858;28;20195;-79
2023/07/28 18:05:19;;;;;;;4.22;2.83;;;19.40;99.90;;;;;;10522770;28;20209;-80
2023/07/28 18:10:41;;;;;;;3.75;2.97;;;19.30;99.90;;;;;;10510161;28;20486;-80
2023/07/28 18:16:02;;;;;;;3.03;2.72;;;19.20;99.90;;;;;;10539678;28;20245;-78
2023/07/28 18:21:24;;;;;;;3.95;3.40;;;19.10;99.90;;;;;;10558519;28;20362;-79
2023/07/28 18:26:47;;;;;;;5.55;3.85;;;19.00;1.00;;;;;;10561031;28;20277;-78
2023/07/28 18:32:08;;;;;;;5.00;3.78;;;18.90;1.00;;;;;;10563842;28;20213;-78
2023/07/28 18:37:29;;;;;;;7.68;4.60;;;18.80;1.00;;;;;;10529257;28;20454;-80
2023/07/28 18:42:51;;;;;;;10.23;8.75;;;18.70;1.00;;;;;;10517604;28;20194;-81
2023/07/28 18:48:12;;;;;;;34.28;24.15;;;18.60;99.90;;;;;;10560755;28;20489;-80
2023/07/28 18:53:33;;;;;;;32.58;25.05;;;18.40;99.90;;;;;;10567402;28;20197;-81
2023/07/28 18:58:54;;;;;;;26.70;19.30;;;18.40;99.90;;;;;;10557304;28;20202;-79
2023/07/28 19:04:16;;;;;;;17.33;12.35;;;18.30;1.00;;;;;;10562247;28;20352;-79
2023/07/28 19:09:38;;;;;;;13.38;8.82;;;18.20;1.00;;;;;;10557720;28;20213;-79
2023/07/28 19:14:59;;;;;;;10.35;6.70;;;18.10;1.00;;;;;;10561246;28;20228;-81
2023/07/28 19:20:20;;;;;;;6.82;4.82;;;18.00;1.00;;;;;;10556130;28;20535;-79
2023/07/28 19:25:41;;;;;;;6.25;4.07;;;17.80;99.90;;;;;;10561456;28;20201;-79
2023/07/28 19:31:05;;;;;;;4.32;3.72;;;17.80;99.90;;;;;;10560243;28;20229;-79
2023/07/28 19:36:29;;;;;;;5.78;3.83;;;17.70;99.90;;;;;;10556289;28;20245;-79
2023/07/28 19:41:50;;;;;;;4.63;3.08;;;17.60;1.00;;;;;;10556165;28;20206;-78
2023/07/28 19:47:11;;;;;;;5.88;3.40;;;17.60;1.00;;;;;;10556011;28;20222;-80
2023/07/28 19:52:33;;;;;;;4.15;3.75;;;17.50;1.00;;;;;;10560643;28;20205;-79
2023/07/28 19:57:54;;;;;;;5.75;4.00;;;17.30;99.90;;;;;;10519868;28;20230;-79
2023/07/28 20:03:16;;;;;;;5.13;4.07;;;17.20;99.90;;;;;;10518267;28;20195;-79
2023/07/28 20:08:37;;;;;;;4.90;4.40;;;17.20;1.00;;;;;;10534290;28;20198;-81
2023/07/28 20:13:58;;;;;;;8.30;4.78;;;17.10;1.00;;;;;;10559646;28;20516;-81
2023/07/28 20:19:20;;;;;;;5.63;4.40;;;17.00;99.90;;;;;;10534312;28;20205;-82
2023/07/28 20:24:42;;;;;;;5.93;4.45;;;16.90;1.00;;;;;;10519770;28;20191;-81
2023/07/28 20:30:03;;;;;;;6.07;4.57;;;16.90;1.00;;;;;;10509641;28;20203;-82
2023/07/28 20:35:25;;;;;;;6.22;4.22;;;16.80;1.00;;;;;;10543153;28;20472;-82
2023/07/28 20:40:46;;;;;;;7.00;4.90;;;16.70;99.90;;;;;;10558940;28;20204;-80
2023/07/28 20:46:08;;;;;;;5.55;4.63;;;16.80;1.00;;;;;;10518242;28;20197;-80
2023/07/28 20:51:29;;;;;;;5.75;5.05;;;16.70;1.00;;;;;;10491301;28;20500;-82
2023/07/28 20:56:50;;;;;;;5.88;5.05;;;16.60;1.00;;;;;;10529422;28;20217;-77
2023/07/28 21:02:15;;;;;;;6.68;5.15;;;16.60;1.00;;;;;;10551456;28;20570;-79
2023/07/28 21:07:36;;;;;;;8.88;5.57;;;16.50;1.00;;;;;;10567329;28;20194;-80
2023/07/28 21:12:57;;;;;;;7.72;5.70;;;16.40;1.00;;;;;;10564701;28;20202;-78
2023/07/28 21:18:20;;;;;;;7.30;5.72;;;16.20;1.00;;;;;;10567755;28;20334;-81
2023/07/28 21:23:42;;;;;;;6.85;5.60;;;16.10;86.60;;;;;;10543438;28;20218;-80
2023/07/28 21:29:03;;;;;;;8.23;5.68;;;16.00;1.00;;;;;;10524079;28;20373;-81
2023/07/28 21:34:25;;;;;;;7.82;6.35;;;15.90;99.90;;;;;;10546636;28;20236;-81
2023/07/28 21:39:46;;;;;;;7.80;6.10;;;15.80;1.00;;;;;;10551221;28;20197;-79
2023/07/28 21:45:09;;;;;;;6.15;5.15;;;15.70;1.00;;;;;;10564639;28;20210;-82
2023/07/28 21:50:30;;;;;;;7.57;5.30;;;15.60;99.90;;;;;;10565587;28;20242;-81
2023/07/28 21:55:53;;;;;;;6.28;5.30;;;15.60;99.90;;;;;;10529485;28;20222;-81
2023/07/28 22:01:14;;;;;;;5.85;4.82;;;15.40;99.90;;;;;;10525787;28;20190;-80
2023/07/28 22:06:35;;;;;;;6.25;5.15;;;15.30;99.90;;;;;;10539205;28;20228;-79
2023/07/28 22:11:56;;;;;;;7.43;5.50;;;15.20;99.90;;;;;;10527507;28;20237;-80
2023/07/28 22:17:18;;;;;;;7.05;5.80;;;15.20;1.00;;;;;;10565403;28;20368;-80
2023/07/28 22:22:38;;;;;;;9.15;6.65;;;15.20;51.90;;;;;;10549031;28;20211;-80
2023/07/28 22:28:00;;;;;;;11.93;8.48;;;15.10;1.00;;;;;;10522055;28;20189;-80
2023/07/28 22:33:21;;;;;;;10.73;8.02;;;15.00;1.00;;;;;;10517606;28;20239;-80
2023/07/28 22:38:43;;;;;;;12.40;7.68;;;14.90;99.90;;;;;;10548965;28;20237;-81
2023/07/28 22:44:05;;;;;;;9.60;7.53;;;14.80;99.90;;;;;;10557218;28;20197;-80
2023/07/28 22:49:26;;;;;;;11.65;7.88;;;14.70;1.00;;;;;;10521098;28;20207;-79
2023/07/28 22:54:48;;;;;;;11.05;7.72;;;14.70;99.90;;;;;;10542380;28;20295;-81
2023/07/28 23:00:16;;;;;;;10.20;8.05;;;14.70;1.00;;;;;;10520585;28;20205;-80
2023/07/28 23:05:38;;;;;;;10.65;7.13;;;14.60;99.90;;;;;;10506624;28;20205;-80
2023/07/28 23:11:00;;;;;;;10.48;8.55;;;14.60;99.90;;;;;;10520160;28;20278;-82
2023/07/28 23:16:21;;;;;;;11.32;7.90;;;14.50;99.90;;;;;;10522099;28;20279;-80
2023/07/28 23:21:43;;;;;;;11.75;9.00;;;14.40;99.90;;;;;;10546521;28;20205;-81
2023/07/28 23:27:04;;;;;;;15.48;10.15;;;14.40;99.90;;;;;;10559631;28;20393;-79
2023/07/28 23:32:26;;;;;;;14.88;9.98;;;14.30;99.90;;;;;;10561131;28;20217;-81
2023/07/28 23:37:47;;;;;;;12.73;9.48;;;14.30;99.90;;;;;;10543587;28;20237;-81
2023/07/28 23:43:08;;;;;;;16.20;9.70;;;14.20;1.00;;;;;;10556090;28;20207;-82
2023/07/28 23:48:30;;;;;;;15.48;9.90;;;14.10;1.00;;;;;;10546567;28;20204;-81
2023/07/28 23:53:51;;;;;;;13.80;9.48;;;14.00;1.00;;;;;;10541548;28;20501;-82
2023/07/28 23:59:13;;;;;;;12.35;9.45;;;14.00;1.00;;;;;;10552837;28;20308;-82
